sensor_id;sensor_type;location;lat;lon;timestamp;P1;durP1;ratioP1;P2;durP2;ratioP2
7444;SDS011;3764;48.126;11.594;2022-12-18T00:01:12;36.50;;;18.30;;
7444;SDS011;3764;48.126;11.594;2022-12-18T00:03:41;42.25;;;19.30;;
7444;SDS011;3764;48.126;11.594;2022-12-18T00:06:08;43.63;;;18.95;;
7444;SDS011;3764;48.126;11.594;2022-12-18T00:08:35;47.75;;;21.25;;
7444;SDS011;3764;48.126;11.594;2022-12-18T00:11:03;46.97;;;21.77;;
7444;SDS011;3764;48.126;11.594;2022-12-18T00:13:31;40.58;;;19.20;;
7444;SDS011;3764;48.126;11.594;2022-12-18T00:16:02;40.85;;;22.13;;
7444;SDS011;3764;48.126;11.594;2022-12-18T00:18:30;44.10;;;20.27;;
7444;SDS011;3764;48.126;11.594;2022-12-18T00:20:58;50.97;;;20.80;;
7444;SDS011;3764;48.126;11.594;2022-12-18T00:23:26;54.50;;;24.45;;
7444;SDS011;3764;48.126;11.594;2022-12-18T00:25:53;48.35;;;21.02;;
7444;SDS011;3764;48.126;11.594;2022-12-18T00:28:20;57.65;;;24.67;;
7444;SDS011;3764;48.126;11.594;2022-12-18T00:30:47;54.20;;;21.98;;
7444;SDS011;3764;48.126;11.594;2022-12-18T00:33:17;57.22;;;22.25;;
7444;SDS011;3764;48.126;11.594;2022-12-18T00:35:45;61.70;;;22.27;;
7444;SDS011;3764;48.126;11.594;2022-12-18T00:38:12;44.65;;;23.45;;
7444;SDS011;3764;48.126;11.594;2022-12-18T00:40:39;54.05;;;21.50;;
7444;SDS011;3764;48.126;11.594;2022-12-18T00:43:06;50.33;;;20.33;;
7444;SDS011;3764;48.126;11.594;2022-12-18T00:45:35;42.70;;;20.45;;
7444;SDS011;3764;48.126;11.594;2022-12-18T00:48:03;46.92;;;23.35;;
7444;SDS011;3764;48.126;11.594;2022-12-18T00:50:32;48.70;;;21.48;;
7444;SDS011;3764;48.126;11.594;2022-12-18T00:52:59;40.20;;;19.20;;
7444;SDS011;3764;48.126;11.594;2022-12-18T00:55:26;46.05;;;20.25;;
7444;SDS011;3764;48.126;11.594;2022-12-18T00:57:53;52.25;;;21.88;;
7444;SDS011;3764;48.126;11.594;2022-12-18T01:00:20;48.58;;;19.88;;
7444;SDS011;3764;48.126;11.594;2022-12-18T01:02:48;43.92;;;21.95;;
7444;SDS011;3764;48.126;11.594;2022-12-18T01:05:15;44.28;;;19.45;;
7444;SDS011;3764;48.126;11.594;2022-12-18T01:07:44;42.70;;;20.90;;
7444;SDS011;3764;48.126;11.594;2022-12-18T01:10:11;42.35;;;20.70;;
7444;SDS011;3764;48.126;11.594;2022-12-18T01:12:39;49.83;;;19.38;;
7444;SDS011;3764;48.126;11.594;2022-12-18T01:15:06;46.15;;;22.20;;
7444;SDS011;3764;48.126;11.594;2022-12-18T01:17:34;52.45;;;21.60;;
7444;SDS011;3764;48.126;11.594;2022-12-18T01:20:01;47.42;;;19.63;;
7444;SDS011;3764;48.126;11.594;2022-12-18T01:22:29;45.20;;;20.95;;
7444;SDS011;3764;48.126;11.594;2022-12-18T01:25:00;37.53;;;17.60;;
7444;SDS011;3764;48.126;11.594;2022-12-18T01:27:27;47.22;;;19.65;;
7444;SDS011;3764;48.126;11.594;2022-12-18T01:29:54;46.15;;;20.35;;
7444;SDS011;3764;48.126;11.594;2022-12-18T01:32:21;43.20;;;20.00;;
7444;SDS011;3764;48.126;11.594;2022-12-18T01:34:48;48.75;;;19.38;;
7444;SDS011;3764;48.126;11.594;2022-12-18T01:37:15;45.08;;;19.05;;
7444;SDS011;3764;48.126;11.594;2022-12-18T01:39:42;47.42;;;22.55;;
7444;SDS011;3764;48.126;11.594;2022-12-18T01:42:12;51.78;;;22.45;;
7444;SDS011;3764;48.126;11.594;2022-12-18T01:44:54;50.50;;;22.02;;
7444;SDS011;3764;48.126;11.594;2022-12-18T01:47:28;50.83;;;19.02;;
7444;SDS011;3764;48.126;11.594;2022-12-18T01:49:58;49.17;;;19.75;;
7444;SDS011;3764;48.126;11.594;2022-12-18T01:52:29;48.20;;;20.75;;
7444;SDS011;3764;48.126;11.594;2022-12-18T01:54:58;46.05;;;19.55;;
7444;SDS011;3764;48.126;11.594;2022-12-18T01:57:28;50.15;;;20.02;;
7444;SDS011;3764;48.126;11.594;2022-12-18T01:59:57;40.83;;;21.92;;
7444;SDS011;3764;48.126;11.594;2022-12-18T02:02:27;50.88;;;21.63;;
7444;SDS011;3764;48.126;11.594;2022-12-18T02:04:55;48.38;;;19.48;;
7444;SDS011;3764;48.126;11.594;2022-12-18T02:07:24;48.92;;;21.17;;
7444;SDS011;3764;48.126;11.594;2022-12-18T02:09:58;51.17;;;23.67;;
7444;SDS011;3764;48.126;11.594;2022-12-18T02:12:33;44.95;;;21.98;;
7444;SDS011;3764;48.126;11.594;2022-12-18T02:15:09;50.38;;;24.85;;
7444;SDS011;3764;48.126;11.594;2022-12-18T02:17:42;49.97;;;22.92;;
7444;SDS011;3764;48.126;11.594;2022-12-18T02:20:16;51.72;;;21.08;;
7444;SDS011;3764;48.126;11.594;2022-12-18T02:22:55;50.17;;;22.95;;
7444;SDS011;3764;48.126;11.594;2022-12-18T02:25:42;52.13;;;23.02;;
7444;SDS011;3764;48.126;11.594;2022-12-18T02:28:26;52.63;;;21.90;;
7444;SDS011;3764;48.126;11.594;2022-12-18T02:30:57;54.30;;;22.60;;
7444;SDS011;3764;48.126;11.594;2022-12-18T02:33:27;51.45;;;23.17;;
7444;SDS011;3764;48.126;11.594;2022-12-18T02:35:57;42.92;;;20.63;;
7444;SDS011;3764;48.126;11.594;2022-12-18T02:38:26;54.58;;;22.33;;
7444;SDS011;3764;48.126;11.594;2022-12-18T02:40:56;58.65;;;25.17;;
7444;SDS011;3764;48.126;11.594;2022-12-18T02:43:23;55.17;;;25.13;;
7444;SDS011;3764;48.126;11.594;2022-12-18T02:45:52;54.50;;;23.05;;
7444;SDS011;3764;48.126;11.594;2022-12-18T02:48:21;59.38;;;24.70;;
7444;SDS011;3764;48.126;11.594;2022-12-18T02:50:51;52.85;;;22.83;;
7444;SDS011;3764;48.126;11.594;2022-12-18T02:53:28;55.92;;;22.83;;
7444;SDS011;3764;48.126;11.594;2022-12-18T02:56:03;49.80;;;23.05;;
7444;SDS011;3764;48.126;11.594;2022-12-18T02:58:37;62.83;;;25.02;;
7444;SDS011;3764;48.126;11.594;2022-12-18T03:01:13;56.90;;;24.38;;
7444;SDS011;3764;48.126;11.594;2022-12-18T03:03:45;45.88;;;22.48;;
7444;SDS011;3764;48.126;11.594;2022-12-18T03:06:18;51.10;;;22.55;;
7444;SDS011;3764;48.126;11.594;2022-12-18T03:08:52;43.75;;;22.02;;
7444;SDS011;3764;48.126;11.594;2022-12-18T03:11:25;46.17;;;20.48;;
7444;SDS011;3764;48.126;11.594;2022-12-18T03:14:13;49.67;;;23.45;;
7444;SDS011;3764;48.126;11.594;2022-12-18T03:16:43;49.78;;;21.10;;
7444;SDS011;3764;48.126;11.594;2022-12-18T03:19:13;46.03;;;20.75;;
7444;SDS011;3764;48.126;11.594;2022-12-18T03:21:43;54.45;;;21.95;;
7444;SDS011;3764;48.126;11.594;2022-12-18T03:24:13;51.50;;;23.13;;
7444;SDS011;3764;48.126;11.594;2022-12-18T03:26:44;54.15;;;24.58;;
7444;SDS011;3764;48.126;11.594;2022-12-18T03:29:15;57.50;;;23.25;;
7444;SDS011;3764;48.126;11.594;2022-12-18T03:31:47;60.60;;;23.13;;
7444;SDS011;3764;48.126;11.594;2022-12-18T03:34:21;53.97;;;23.27;;
7444;SDS011;3764;48.126;11.594;2022-12-18T03:36:52;55.30;;;23.38;;
7444;SDS011;3764;48.126;11.594;2022-12-18T03:39:19;57.53;;;21.63;;
7444;SDS011;3764;48.126;11.594;2022-12-18T03:41:49;53.50;;;23.52;;
7444;SDS011;3764;48.126;11.594;2022-12-18T03:44:25;51.28;;;22.20;;
7444;SDS011;3764;48.126;11.594;2022-12-18T03:46:57;58.58;;;24.55;;
7444;SDS011;3764;48.126;11.594;2022-12-18T03:49:33;54.60;;;23.75;;
7444;SDS011;3764;48.126;11.594;2022-12-18T03:52:04;52.08;;;25.55;;
7444;SDS011;3764;48.126;11.594;2022-12-18T03:54:35;69.90;;;26.25;;
7444;SDS011;3764;48.126;11.594;2022-12-18T03:57:07;47.38;;;22.58;;
7444;SDS011;3764;48.126;11.594;2022-12-18T03:59:39;48.90;;;22.35;;
7444;SDS011;3764;48.126;11.594;2022-12-18T04:02:07;48.97;;;21.85;;
7444;SDS011;3764;48.126;11.594;2022-12-18T04:04:35;54.35;;;21.88;;
7444;SDS011;3764;48.126;11.594;2022-12-18T04:07:05;53.72;;;21.90;;
7444;SDS011;3764;48.126;11.594;2022-12-18T04:09:33;47.40;;;23.15;;
7444;SDS011;3764;48.126;11.594;2022-12-18T04:12:02;47.72;;;21.88;;
7444;SDS011;3764;48.126;11.594;2022-12-18T04:14:31;47.92;;;22.05;;
7444;SDS011;3764;48.126;11.594;2022-12-18T04:17:00;55.03;;;22.85;;
7444;SDS011;3764;48.126;11.594;2022-12-18T04:19:27;51.75;;;22.95;;
7444;SDS011;3764;48.126;11.594;2022-12-18T04:21:55;54.80;;;23.02;;
7444;SDS011;3764;48.126;11.594;2022-12-18T04:24:22;45.13;;;20.30;;
7444;SDS011;3764;48.126;11.594;2022-12-18T04:26:49;48.65;;;23.40;;
7444;SDS011;3764;48.126;11.594;2022-12-18T04:29:16;44.47;;;20.02;;
7444;SDS011;3764;48.126;11.594;2022-12-18T04:31:44;45.25;;;20.98;;
7444;SDS011;3764;48.126;11.594;2022-12-18T04:34:12;52.90;;;22.95;;
7444;SDS011;3764;48.126;11.594;2022-12-18T04:36:39;45.92;;;19.73;;
7444;SDS011;3764;48.126;11.594;2022-12-18T04:39:06;47.88;;;21.73;;
7444;SDS011;3764;48.126;11.594;2022-12-18T04:41:33;50.53;;;21.77;;
7444;SDS011;3764;48.126;11.594;2022-12-18T04:44:00;53.53;;;22.27;;
7444;SDS011;3764;48.126;11.594;2022-12-18T04:46:27;42.60;;;20.33;;
7444;SDS011;3764;48.126;11.594;2022-12-18T04:48:56;47.50;;;20.45;;
7444;SDS011;3764;48.126;11.594;2022-12-18T04:51:23;42.25;;;21.38;;
7444;SDS011;3764;48.126;11.594;2022-12-18T04:53:50;47.17;;;22.15;;
7444;SDS011;3764;48.126;11.594;2022-12-18T04:56:17;51.17;;;21.63;;
7444;SDS011;3764;48.126;11.594;2022-12-18T04:58:44;42.25;;;20.48;;
7444;SDS011;3764;48.126;11.594;2022-12-18T05:01:12;40.97;;;17.48;;
7444;SDS011;3764;48.126;11.594;2022-12-18T05:03:40;40.88;;;19.92;;
7444;SDS011;3764;48.126;11.594;2022-12-18T05:06:08;40.67;;;18.52;;
7444;SDS011;3764;48.126;11.594;2022-12-18T05:08:36;40.55;;;19.30;;
7444;SDS011;3764;48.126;11.594;2022-12-18T05:11:04;46.95;;;19.98;;
7444;SDS011;3764;48.126;11.594;2022-12-18T05:13:33;34.60;;;17.33;;
7444;SDS011;3764;48.126;11.594;2022-12-18T05:16:01;41.35;;;20.08;;
7444;SDS011;3764;48.126;11.594;2022-12-18T05:18:28;44.92;;;19.98;;
7444;SDS011;3764;48.126;11.594;2022-12-18T05:20:55;43.17;;;19.35;;
7444;SDS011;3764;48.126;11.594;2022-12-18T05:23:24;41.65;;;19.17;;
7444;SDS011;3764;48.126;11.594;2022-12-18T05:25:52;45.60;;;19.50;;
7444;SDS011;3764;48.126;11.594;2022-12-18T05:28:20;48.58;;;20.05;;
7444;SDS011;3764;48.126;11.594;2022-12-18T05:30:48;53.50;;;19.73;;
7444;SDS011;3764;48.126;11.594;2022-12-18T05:33:16;43.67;;;17.67;;
7444;SDS011;3764;48.126;11.594;2022-12-18T05:35:43;43.38;;;18.35;;
7444;SDS011;3764;48.126;11.594;2022-12-18T05:38:10;40.63;;;17.98;;
7444;SDS011;3764;48.126;11.594;2022-12-18T05:40:40;39.60;;;18.45;;
7444;SDS011;3764;48.126;11.594;2022-12-18T05:43:08;43.38;;;20.08;;
7444;SDS011;3764;48.126;11.594;2022-12-18T05:45:36;41.97;;;16.08;;
7444;SDS011;3764;48.126;11.594;2022-12-18T05:48:04;44.20;;;22.00;;
7444;SDS011;3764;48.126;11.594;2022-12-18T05:50:33;39.78;;;19.25;;
7444;SDS011;3764;48.126;11.594;2022-12-18T05:53:01;42.35;;;18.67;;
7444;SDS011;3764;48.126;11.594;2022-12-18T05:55:28;38.03;;;16.60;;
7444;SDS011;3764;48.126;11.594;2022-12-18T05:57:56;45.22;;;18.77;;
7444;SDS011;3764;48.126;11.594;2022-12-18T06:00:24;40.45;;;16.95;;
7444;SDS011;3764;48.126;11.594;2022-12-18T06:02:51;40.10;;;17.55;;
7444;SDS011;3764;48.126;11.594;2022-12-18T06:05:18;51.15;;;20.70;;
7444;SDS011;3764;48.126;11.594;2022-12-18T06:07:45;46.05;;;21.40;;
7444;SDS011;3764;48.126;11.594;2022-12-18T06:10:12;39.92;;;19.10;;
7444;SDS011;3764;48.126;11.594;2022-12-18T06:12:39;38.10;;;17.38;;
7444;SDS011;3764;48.126;11.594;2022-12-18T06:15:08;52.17;;;20.10;;
7444;SDS011;3764;48.126;11.594;2022-12-18T06:17:35;40.53;;;19.35;;
7444;SDS011;3764;48.126;11.594;2022-12-18T06:20:03;46.40;;;18.77;;
7444;SDS011;3764;48.126;11.594;2022-12-18T06:22:32;40.72;;;16.80;;
7444;SDS011;3764;48.126;11.594;2022-12-18T06:25:00;39.22;;;17.95;;
7444;SDS011;3764;48.126;11.594;2022-12-18T06:27:27;42.08;;;18.40;;
7444;SDS011;3764;48.126;11.594;2022-12-18T06:29:54;39.63;;;17.70;;
7444;SDS011;3764;48.126;11.594;2022-12-18T06:32:22;38.72;;;17.75;;
7444;SDS011;3764;48.126;11.594;2022-12-18T06:34:49;42.90;;;18.25;;
7444;SDS011;3764;48.126;11.594;2022-12-18T06:37:17;42.53;;;17.38;;
7444;SDS011;3764;48.126;11.594;2022-12-18T06:39:44;39.80;;;17.10;;
7444;SDS011;3764;48.126;11.594;2022-12-18T06:42:11;41.25;;;17.15;;
7444;SDS011;3764;48.126;11.594;2022-12-18T06:44:38;38.85;;;17.83;;
7444;SDS011;3764;48.126;11.594;2022-12-18T06:47:05;44.70;;;17.80;;
7444;SDS011;3764;48.126;11.594;2022-12-18T06:49:34;41.10;;;17.25;;
7444;SDS011;3764;48.126;11.594;2022-12-18T06:52:01;37.38;;;16.88;;
7444;SDS011;3764;48.126;11.594;2022-12-18T06:54:28;32.70;;;16.23;;
7444;SDS011;3764;48.126;11.594;2022-12-18T06:56:55;41.28;;;16.42;;
7444;SDS011;3764;48.126;11.594;2022-12-18T06:59:22;40.30;;;19.55;;
7444;SDS011;3764;48.126;11.594;2022-12-18T07:01:49;29.08;;;15.52;;
7444;SDS011;3764;48.126;11.594;2022-12-18T07:04:16;36.42;;;15.70;;
7444;SDS011;3764;48.126;11.594;2022-12-18T07:06:44;40.78;;;16.58;;
7444;SDS011;3764;48.126;11.594;2022-12-18T07:09:11;41.65;;;19.17;;
7444;SDS011;3764;48.126;11.594;2022-12-18T07:11:39;37.10;;;16.25;;
7444;SDS011;3764;48.126;11.594;2022-12-18T07:14:06;30.45;;;15.65;;
7444;SDS011;3764;48.126;11.594;2022-12-18T07:16:34;40.95;;;18.38;;
7444;SDS011;3764;48.126;11.594;2022-12-18T07:19:01;38.55;;;16.42;;
7444;SDS011;3764;48.126;11.594;2022-12-18T07:21:28;41.72;;;18.17;;
7444;SDS011;3764;48.126;11.594;2022-12-18T07:23:56;38.88;;;16.95;;
7444;SDS011;3764;48.126;11.594;2022-12-18T07:26:23;36.45;;;16.42;;
7444;SDS011;3764;48.126;11.594;2022-12-18T07:28:52;37.75;;;17.95;;
7444;SDS011;3764;48.126;11.594;2022-12-18T07:31:21;33.97;;;17.80;;
7444;SDS011;3764;48.126;11.594;2022-12-18T07:33:48;41.95;;;16.63;;
7444;SDS011;3764;48.126;11.594;2022-12-18T07:36:16;37.08;;;16.63;;
7444;SDS011;3764;48.126;11.594;2022-12-18T07:38:46;30.17;;;15.82;;
7444;SDS011;3764;48.126;11.594;2022-12-18T07:41:15;36.35;;;16.38;;
7444;SDS011;3764;48.126;11.594;2022-12-18T07:43:43;36.03;;;15.82;;
7444;SDS011;3764;48.126;11.594;2022-12-18T07:46:11;32.72;;;16.80;;
7444;SDS011;3764;48.126;11.594;2022-12-18T07:48:39;33.15;;;15.27;;
7444;SDS011;3764;48.126;11.594;2022-12-18T07:51:07;37.78;;;17.25;;
7444;SDS011;3764;48.126;11.594;2022-12-18T07:53:34;38.50;;;18.05;;
7444;SDS011;3764;48.126;11.594;2022-12-18T07:56:03;37.08;;;19.30;;
7444;SDS011;3764;48.126;11.594;2022-12-18T07:58:35;40.15;;;17.60;;
7444;SDS011;3764;48.126;11.594;2022-12-18T08:01:03;33.55;;;14.80;;
7444;SDS011;3764;48.126;11.594;2022-12-18T08:03:31;40.63;;;16.67;;
7444;SDS011;3764;48.126;11.594;2022-12-18T08:05:59;34.15;;;16.05;;
7444;SDS011;3764;48.126;11.594;2022-12-18T08:08:27;45.33;;;17.45;;
7444;SDS011;3764;48.126;11.594;2022-12-18T08:10:54;40.63;;;17.00;;
7444;SDS011;3764;48.126;11.594;2022-12-18T08:13:21;35.90;;;16.05;;
7444;SDS011;3764;48.126;11.594;2022-12-18T08:15:56;34.40;;;17.55;;
7444;SDS011;3764;48.126;11.594;2022-12-18T08:18:24;37.63;;;16.27;;
7444;SDS011;3764;48.126;11.594;2022-12-18T08:20:51;31.48;;;15.43;;
7444;SDS011;3764;48.126;11.594;2022-12-18T08:23:18;35.10;;;18.40;;
7444;SDS011;3764;48.126;11.594;2022-12-18T08:25:45;34.70;;;14.85;;
7444;SDS011;3764;48.126;11.594;2022-12-18T08:28:13;28.90;;;15.40;;
7444;SDS011;3764;48.126;11.594;2022-12-18T08:30:40;36.25;;;17.15;;
7444;SDS011;3764;48.126;11.594;2022-12-18T08:33:09;42.72;;;18.05;;
7444;SDS011;3764;48.126;11.594;2022-12-18T08:35:36;38.20;;;17.02;;
7444;SDS011;3764;48.126;11.594;2022-12-18T08:38:03;34.67;;;17.52;;
7444;SDS011;3764;48.126;11.594;2022-12-18T08:40:31;44.33;;;18.30;;
7444;SDS011;3764;48.126;11.594;2022-12-18T08:42:58;39.30;;;15.98;;
7444;SDS011;3764;48.126;11.594;2022-12-18T08:45:42;33.30;;;16.20;;
7444;SDS011;3764;48.126;11.594;2022-12-18T08:48:11;32.85;;;16.05;;
7444;SDS011;3764;48.126;11.594;2022-12-18T08:50:38;42.25;;;17.85;;
7444;SDS011;3764;48.126;11.594;2022-12-18T08:53:05;32.15;;;16.63;;
7444;SDS011;3764;48.126;11.594;2022-12-18T08:55:32;36.80;;;16.52;;
7444;SDS011;3764;48.126;11.594;2022-12-18T08:57:59;37.92;;;17.33;;
7444;SDS011;3764;48.126;11.594;2022-12-18T09:00:26;28.08;;;13.90;;
7444;SDS011;3764;48.126;11.594;2022-12-18T09:02:53;39.03;;;16.85;;
7444;SDS011;3764;48.126;11.594;2022-12-18T09:05:22;36.42;;;17.23;;
7444;SDS011;3764;48.126;11.594;2022-12-18T09:07:49;33.40;;;15.88;;
7444;SDS011;3764;48.126;11.594;2022-12-18T09:10:16;34.90;;;15.00;;
7444;SDS011;3764;48.126;11.594;2022-12-18T09:12:43;35.20;;;14.10;;
7444;SDS011;3764;48.126;11.594;2022-12-18T09:15:10;42.67;;;17.70;;
7444;SDS011;3764;48.126;11.594;2022-12-18T09:17:37;37.85;;;15.65;;
7444;SDS011;3764;48.126;11.594;2022-12-18T09:20:05;37.88;;;17.40;;
7444;SDS011;3764;48.126;11.594;2022-12-18T09:22:34;31.70;;;16.35;;
7444;SDS011;3764;48.126;11.594;2022-12-18T09:25:01;38.10;;;16.95;;
7444;SDS011;3764;48.126;11.594;2022-12-18T09:27:28;31.52;;;16.48;;
7444;SDS011;3764;48.126;11.594;2022-12-18T09:29:55;35.83;;;15.88;;
7444;SDS011;3764;48.126;11.594;2022-12-18T09:32:22;36.08;;;15.70;;
7444;SDS011;3764;48.126;11.594;2022-12-18T09:34:49;33.67;;;15.82;;
7444;SDS011;3764;48.126;11.594;2022-12-18T09:37:16;37.80;;;16.50;;
7444;SDS011;3764;48.126;11.594;2022-12-18T09:39:45;30.90;;;14.98;;
7444;SDS011;3764;48.126;11.594;2022-12-18T09:42:12;33.83;;;17.77;;
7444;SDS011;3764;48.126;11.594;2022-12-18T09:44:47;39.97;;;14.85;;
7444;SDS011;3764;48.126;11.594;2022-12-18T09:47:17;45.72;;;19.08;;
7444;SDS011;3764;48.126;11.594;2022-12-18T09:49:49;34.97;;;15.13;;
7444;SDS011;3764;48.126;11.594;2022-12-18T09:52:21;35.60;;;14.65;;
7444;SDS011;3764;48.126;11.594;2022-12-18T09:54:55;38.97;;;16.45;;
7444;SDS011;3764;48.126;11.594;2022-12-18T09:57:25;32.42;;;16.48;;
7444;SDS011;3764;48.126;11.594;2022-12-18T09:59:54;37.13;;;16.40;;
7444;SDS011;3764;48.126;11.594;2022-12-18T10:02:25;42.67;;;17.52;;
7444;SDS011;3764;48.126;11.594;2022-12-18T10:05:00;37.13;;;15.50;;
7444;SDS011;3764;48.126;11.594;2022-12-18T10:07:33;31.05;;;15.07;;
7444;SDS011;3764;48.126;11.594;2022-12-18T10:10:11;33.17;;;16.35;;
7444;SDS011;3764;48.126;11.594;2022-12-18T10:12:47;33.90;;;15.32;;
7444;SDS011;3764;48.126;11.594;2022-12-18T10:15:22;33.72;;;15.82;;
7444;SDS011;3764;48.126;11.594;2022-12-18T10:17:57;33.20;;;15.60;;
7444;SDS011;3764;48.126;11.594;2022-12-18T10:20:33;33.80;;;16.98;;
7444;SDS011;3764;48.126;11.594;2022-12-18T10:23:08;29.00;;;13.68;;
7444;SDS011;3764;48.126;11.594;2022-12-18T10:25:45;33.88;;;15.98;;
7444;SDS011;3764;48.126;11.594;2022-12-18T10:28:20;36.05;;;15.30;;
7444;SDS011;3764;48.126;11.594;2022-12-18T10:30:48;29.52;;;15.00;;
7444;SDS011;3764;48.126;11.594;2022-12-18T10:33:16;38.20;;;16.42;;
7444;SDS011;3764;48.126;11.594;2022-12-18T10:35:44;35.42;;;16.83;;
7444;SDS011;3764;48.126;11.594;2022-12-18T10:38:24;30.65;;;14.65;;
7444;SDS011;3764;48.126;11.594;2022-12-18T10:40:54;35.45;;;16.10;;
7444;SDS011;3764;48.126;11.594;2022-12-18T10:43:24;33.22;;;15.70;;
7444;SDS011;3764;48.126;11.594;2022-12-18T10:46:00;32.95;;;16.67;;
7444;SDS011;3764;48.126;11.594;2022-12-18T10:48:29;38.92;;;17.02;;
7444;SDS011;3764;48.126;11.594;2022-12-18T10:50:58;34.67;;;17.85;;
7444;SDS011;3764;48.126;11.594;2022-12-18T10:53:26;37.45;;;19.75;;
7444;SDS011;3764;48.126;11.594;2022-12-18T10:55:57;34.00;;;17.20;;
7444;SDS011;3764;48.126;11.594;2022-12-18T10:58:27;41.10;;;18.80;;
7444;SDS011;3764;48.126;11.594;2022-12-18T11:01:08;28.23;;;15.05;;
7444;SDS011;3764;48.126;11.594;2022-12-18T11:03:37;31.08;;;15.32;;
7444;SDS011;3764;48.126;11.594;2022-12-18T11:06:07;34.85;;;16.00;;
7444;SDS011;3764;48.126;11.594;2022-12-18T11:08:36;36.75;;;16.63;;
7444;SDS011;3764;48.126;11.594;2022-12-18T11:11:15;34.85;;;15.45;;
7444;SDS011;3764;48.126;11.594;2022-12-18T11:13:52;31.63;;;15.15;;
7444;SDS011;3764;48.126;11.594;2022-12-18T11:16:25;42.30;;;16.33;;
7444;SDS011;3764;48.126;11.594;2022-12-18T11:18:54;31.23;;;15.70;;
7444;SDS011;3764;48.126;11.594;2022-12-18T11:21:22;29.85;;;15.45;;
7444;SDS011;3764;48.126;11.594;2022-12-18T11:23:49;30.88;;;15.57;;
7444;SDS011;3764;48.126;11.594;2022-12-18T11:26:19;31.55;;;17.70;;
7444;SDS011;3764;48.126;11.594;2022-12-18T11:28:49;32.20;;;16.45;;
7444;SDS011;3764;48.126;11.594;2022-12-18T11:31:19;34.47;;;15.50;;
7444;SDS011;3764;48.126;11.594;2022-12-18T11:33:56;31.50;;;15.43;;
7444;SDS011;3764;48.126;11.594;2022-12-18T11:36:28;32.58;;;14.50;;
7444;SDS011;3764;48.126;11.594;2022-12-18T11:38:59;35.28;;;17.23;;
7444;SDS011;3764;48.126;11.594;2022-12-18T11:41:34;31.60;;;16.83;;
7444;SDS011;3764;48.126;11.594;2022-12-18T11:44:26;36.05;;;16.98;;
7444;SDS011;3764;48.126;11.594;2022-12-18T11:46:57;25.40;;;15.00;;
7444;SDS011;3764;48.126;11.594;2022-12-18T11:49:28;28.20;;;14.80;;
7444;SDS011;3764;48.126;11.594;2022-12-18T11:52:00;31.77;;;15.20;;
7444;SDS011;3764;48.126;11.594;2022-12-18T11:54:31;31.77;;;16.13;;
7444;SDS011;3764;48.126;11.594;2022-12-18T11:57:01;31.48;;;14.48;;
7444;SDS011;3764;48.126;11.594;2022-12-18T11:59:34;33.00;;;15.35;;
7444;SDS011;3764;48.126;11.594;2022-12-18T12:02:17;38.40;;;16.67;;
7444;SDS011;3764;48.126;11.594;2022-12-18T12:05:10;27.80;;;14.88;;
7444;SDS011;3764;48.126;11.594;2022-12-18T12:07:47;32.58;;;14.75;;
7444;SDS011;3764;48.126;11.594;2022-12-18T12:10:25;33.42;;;16.40;;
7444;SDS011;3764;48.126;11.594;2022-12-18T12:13:06;36.95;;;17.35;;
7444;SDS011;3764;48.126;11.594;2022-12-18T12:15:44;32.05;;;15.20;;
7444;SDS011;3764;48.126;11.594;2022-12-18T12:18:23;31.48;;;16.10;;
7444;SDS011;3764;48.126;11.594;2022-12-18T12:20:58;30.98;;;15.73;;
7444;SDS011;3764;48.126;11.594;2022-12-18T12:23:34;33.90;;;15.02;;
7444;SDS011;3764;48.126;11.594;2022-12-18T12:26:10;32.72;;;15.18;;
7444;SDS011;3764;48.126;11.594;2022-12-18T12:28:47;29.38;;;15.45;;
7444;SDS011;3764;48.126;11.594;2022-12-18T12:31:32;36.40;;;15.85;;
7444;SDS011;3764;48.126;11.594;2022-12-18T12:34:09;32.85;;;15.48;;
7444;SDS011;3764;48.126;11.594;2022-12-18T12:36:48;25.58;;;13.50;;
7444;SDS011;3764;48.126;11.594;2022-12-18T12:39:28;32.78;;;15.07;;
7444;SDS011;3764;48.126;11.594;2022-12-18T12:41:59;32.55;;;15.68;;
7444;SDS011;3764;48.126;11.594;2022-12-18T12:44:47;37.53;;;15.93;;
7444;SDS011;3764;48.126;11.594;2022-12-18T12:47:20;28.98;;;15.35;;
7444;SDS011;3764;48.126;11.594;2022-12-18T12:49:53;31.92;;;15.13;;
7444;SDS011;3764;48.126;11.594;2022-12-18T12:52:28;29.95;;;13.77;;
7444;SDS011;3764;48.126;11.594;2022-12-18T12:54:59;35.28;;;15.32;;
7444;SDS011;3764;48.126;11.594;2022-12-18T12:57:30;33.42;;;14.85;;
7444;SDS011;3764;48.126;11.594;2022-12-18T13:00:04;27.25;;;14.98;;
7444;SDS011;3764;48.126;11.594;2022-12-18T13:02:36;34.47;;;16.00;;
7444;SDS011;3764;48.126;11.594;2022-12-18T13:05:15;31.35;;;16.55;;
7444;SDS011;3764;48.126;11.594;2022-12-18T13:07:51;32.00;;;15.95;;
7444;SDS011;3764;48.126;11.594;2022-12-18T13:10:23;34.80;;;15.55;;
7444;SDS011;3764;48.126;11.594;2022-12-18T13:12:55;27.13;;;14.50;;
7444;SDS011;3764;48.126;11.594;2022-12-18T13:15:26;40.40;;;17.73;;
7444;SDS011;3764;48.126;11.594;2022-12-18T13:18:11;29.80;;;14.52;;
7444;SDS011;3764;48.126;11.594;2022-12-18T13:20:43;33.53;;;15.43;;
7444;SDS011;3764;48.126;11.594;2022-12-18T13:23:31;30.08;;;15.15;;
7444;SDS011;3764;48.126;11.594;2022-12-18T13:28:58;35.58;;;15.68;;
7444;SDS011;3764;48.126;11.594;2022-12-18T13:34:32;30.23;;;13.27;;
7444;SDS011;3764;48.126;11.594;2022-12-18T13:39:56;30.52;;;14.68;;
7444;SDS011;3764;48.126;11.594;2022-12-18T13:42:37;34.60;;;15.25;;
7444;SDS011;3764;48.126;11.594;2022-12-18T13:48:18;32.80;;;16.17;;
7444;SDS011;3764;48.126;11.594;2022-12-18T13:50:56;37.30;;;20.08;;
7444;SDS011;3764;48.126;11.594;2022-12-18T13:53:27;35.67;;;15.55;;
7444;SDS011;3764;48.126;11.594;2022-12-18T13:55:57;33.15;;;16.45;;
7444;SDS011;3764;48.126;11.594;2022-12-18T13:58:24;35.10;;;15.52;;
7444;SDS011;3764;48.126;11.594;2022-12-18T14:00:51;37.78;;;15.80;;
7444;SDS011;3764;48.126;11.594;2022-12-18T14:03:20;39.30;;;17.33;;
7444;SDS011;3764;48.126;11.594;2022-12-18T14:05:53;40.63;;;16.35;;
7444;SDS011;3764;48.126;11.594;2022-12-18T14:08:25;31.33;;;15.65;;
7444;SDS011;3764;48.126;11.594;2022-12-18T14:10:58;33.47;;;16.40;;
7444;SDS011;3764;48.126;11.594;2022-12-18T14:13:28;28.50;;;14.50;;
7444;SDS011;3764;48.126;11.594;2022-12-18T14:15:57;35.65;;;15.30;;
7444;SDS011;3764;48.126;11.594;2022-12-18T14:18:28;30.25;;;15.13;;
7444;SDS011;3764;48.126;11.594;2022-12-18T14:21:02;27.35;;;14.10;;
7444;SDS011;3764;48.126;11.594;2022-12-18T14:23:32;37.80;;;17.40;;
7444;SDS011;3764;48.126;11.594;2022-12-18T14:26:01;32.95;;;15.73;;
7444;SDS011;3764;48.126;11.594;2022-12-18T14:28:30;31.08;;;16.65;;
7444;SDS011;3764;48.126;11.594;2022-12-18T14:30:57;39.40;;;18.13;;
7444;SDS011;3764;48.126;11.594;2022-12-18T14:33:25;34.45;;;15.25;;
7444;SDS011;3764;48.126;11.594;2022-12-18T14:35:54;32.42;;;15.32;;
7444;SDS011;3764;48.126;11.594;2022-12-18T14:38:25;35.90;;;16.13;;
7444;SDS011;3764;48.126;11.594;2022-12-18T14:40:55;27.25;;;13.90;;
7444;SDS011;3764;48.126;11.594;2022-12-18T14:43:23;26.65;;;15.55;;
7444;SDS011;3764;48.126;11.594;2022-12-18T14:45:52;29.55;;;15.40;;
7444;SDS011;3764;48.126;11.594;2022-12-18T14:48:21;29.17;;;13.93;;
7444;SDS011;3764;48.126;11.594;2022-12-18T14:50:58;29.77;;;15.23;;
7444;SDS011;3764;48.126;11.594;2022-12-18T14:53:38;40.20;;;17.35;;
7444;SDS011;3764;48.126;11.594;2022-12-18T14:56:14;29.67;;;14.25;;
7444;SDS011;3764;48.126;11.594;2022-12-18T14:58:44;36.58;;;15.63;;
7444;SDS011;3764;48.126;11.594;2022-12-18T15:01:20;36.42;;;16.17;;
7444;SDS011;3764;48.126;11.594;2022-12-18T15:03:50;33.45;;;15.80;;